createdAt,value
2019-02-10T00:01:49.865Z,8.60
2019-02-10T00:04:17.590Z,8.60
2019-02-10T00:06:45.262Z,8.60
2019-02-10T00:09:13.043Z,8.70
2019-02-10T00:11:40.660Z,8.70
2019-02-10T00:14:10.838Z,8.70
2019-02-10T00:16:38.452Z,8.70
2019-02-10T00:19:06.176Z,8.70
2019-02-10T00:21:33.836Z,8.70
2019-02-10T00:24:01.533Z,8.70
2019-02-10T00:26:29.209Z,8.70
2019-02-10T00:28:56.939Z,8.70
2019-02-10T00:31:24.652Z,8.70
2019-02-10T00:33:52.398Z,8.70
2019-02-10T00:36:20.063Z,8.70
2019-02-10T00:38:47.736Z,8.70
2019-02-10T00:41:15.493Z,8.70
2019-02-10T00:43:43.166Z,8.70
2019-02-10T00:46:12.665Z,8.60
2019-02-10T00:48:40.426Z,8.70
2019-02-10T00:51:08.071Z,8.60
2019-02-10T00:53:35.804Z,8.60
2019-02-10T00:56:13.072Z,8.60
2019-02-10T00:58:40.745Z,8.60
2019-02-10T01:01:08.414Z,8.60
2019-02-10T01:03:36.211Z,8.60
2019-02-10T01:06:03.884Z,8.60
2019-02-10T01:08:31.614Z,8.60
2019-02-10T01:10:59.363Z,8.50
2019-02-10T01:13:27.090Z,8.50
2019-02-10T01:15:54.833Z,8.40
2019-02-10T01:18:22.599Z,8.40
2019-02-10T01:20:50.562Z,8.40
2019-02-10T01:23:18.260Z,8.40
2019-02-10T01:25:45.999Z,8.40
2019-02-10T01:28:13.649Z,8.40
2019-02-10T01:30:42.165Z,8.40
2019-02-10T01:33:09.849Z,8.40
2019-02-10T01:35:37.575Z,8.30
2019-02-10T01:38:05.330Z,8.40
2019-02-10T01:40:33.117Z,8.40
2019-02-10T01:43:00.845Z,8.40
2019-02-10T01:45:29.423Z,8.30
2019-02-10T01:47:57.059Z,8.20
2019-02-10T01:50:24.775Z,8.20
2019-02-10T01:52:52.525Z,8.10
2019-02-10T01:55:20.248Z,8.10
2019-02-10T01:57:47.954Z,8.00
2019-02-10T02:00:15.744Z,7.90
2019-02-10T02:02:43.768Z,7.90
2019-02-10T02:05:11.568Z,7.80
2019-02-10T02:07:39.280Z,7.80
2019-02-10T02:10:08.870Z,7.70
2019-02-10T02:12:36.569Z,7.70
2019-02-10T02:15:05.031Z,7.80
2019-02-10T02:17:32.756Z,7.70
2019-02-10T02:20:00.428Z,7.70
2019-02-10T02:22:28.166Z,7.70
2019-02-10T02:24:55.900Z,7.70
2019-02-10T02:27:23.670Z,7.70
2019-02-10T02:29:51.544Z,7.60
2019-02-10T02:32:19.222Z,7.60
2019-02-10T02:34:47.003Z,7.60
2019-02-10T02:37:14.769Z,7.50
2019-02-10T02:39:42.491Z,7.50
2019-02-10T02:42:11.860Z,7.50
2019-02-10T02:44:39.550Z,7.40
2019-02-10T02:47:07.252Z,7.40
2019-02-10T02:49:35.031Z,7.40
2019-02-10T02:52:02.748Z,7.50
2019-02-10T02:54:30.437Z,7.40
2019-02-10T02:56:58.135Z,7.30
2019-02-10T02:59:25.814Z,7.30
2019-02-10T03:01:53.586Z,7.20
2019-02-10T03:04:21.327Z,7.20
2019-02-10T03:06:49.056Z,7.20
2019-02-10T03:09:16.908Z,7.10
2019-02-10T03:11:44.679Z,7.00
2019-02-10T03:14:12.372Z,7.00
2019-02-10T03:16:40.088Z,7.00
2019-02-10T03:19:07.750Z,7.00
2019-02-10T03:21:35.499Z,6.90
2019-02-10T03:24:03.780Z,6.90
2019-02-10T03:26:31.460Z,6.80
2019-02-10T03:28:59.179Z,6.80
2019-02-10T03:31:26.939Z,6.80
2019-02-10T03:33:54.613Z,6.80
2019-02-10T03:36:22.383Z,6.70
2019-02-10T03:38:50.047Z,6.70
2019-02-10T03:41:17.773Z,6.70
2019-02-10T03:43:45.512Z,6.80
2019-02-10T03:46:13.285Z,6.70
2019-02-10T03:48:40.991Z,6.70
2019-02-10T03:51:08.746Z,6.70
2019-02-10T03:53:36.476Z,6.80
2019-02-10T03:56:04.292Z,6.80
2019-02-10T03:58:32.207Z,6.80
2019-02-10T04:00:59.982Z,6.80
2019-02-10T04:03:27.660Z,6.80
2019-02-10T04:05:55.551Z,6.70
2019-02-10T04:08:23.246Z,6.80
2019-02-10T04:10:51.028Z,6.70
2019-02-10T04:13:18.731Z,6.70
2019-02-10T04:15:46.442Z,6.80
2019-02-10T04:18:14.106Z,6.70
2019-02-10T04:20:41.823Z,6.80
2019-02-10T04:25:37.925Z,6.70
2019-02-10T04:28:05.636Z,6.70
2019-02-10T04:30:33.306Z,6.70
2019-02-10T04:33:01.054Z,6.70
2019-02-10T04:35:29.053Z,6.70
2019-02-10T04:37:56.780Z,6.60
2019-02-10T04:40:24.486Z,6.60
2019-02-10T04:42:52.277Z,6.60
2019-02-10T04:45:19.955Z,6.60
2019-02-10T04:47:47.670Z,6.60
2019-02-10T04:50:15.461Z,6.60
2019-02-10T04:52:43.170Z,6.60
2019-02-10T04:55:10.844Z,6.60
2019-02-10T04:57:38.543Z,6.70
2019-02-10T05:00:07.052Z,6.60
2019-02-10T05:02:34.757Z,6.60
2019-02-10T05:05:02.481Z,6.60
2019-02-10T05:07:30.256Z,6.60
2019-02-10T05:09:59.724Z,6.60
2019-02-10T05:12:27.326Z,6.60
2019-02-10T05:14:55.127Z,6.60
2019-02-10T05:17:22.833Z,6.60
2019-02-10T05:19:50.712Z,6.60
2019-02-10T05:22:18.450Z,6.60
2019-02-10T05:24:46.140Z,6.40
2019-02-10T05:27:13.864Z,6.60
2019-02-10T05:29:41.593Z,6.60
2019-02-10T05:32:09.356Z,6.60
2019-02-10T05:34:37.020Z,6.60
2019-02-10T05:37:04.749Z,6.70
2019-02-10T05:39:32.485Z,6.70
2019-02-10T05:42:00.262Z,6.70
2019-02-10T05:44:28.008Z,6.70
2019-02-10T05:46:55.749Z,6.80
2019-02-10T05:49:23.440Z,6.70
2019-02-10T05:51:58.298Z,6.70
2019-02-10T05:54:25.942Z,6.80
2019-02-10T05:56:53.654Z,6.80
2019-02-10T05:59:21.394Z,6.80
2019-02-10T06:02:05.282Z,6.90
2019-02-10T06:04:36.063Z,6.90
2019-02-10T06:07:07.415Z,6.90
2019-02-10T06:09:35.143Z,6.90
2019-02-10T06:12:02.900Z,6.90
2019-02-10T06:14:30.556Z,6.90
2019-02-10T06:16:58.258Z,7.00
2019-02-10T06:19:25.960Z,7.00
2019-02-10T06:21:53.661Z,7.00
2019-02-10T06:24:21.387Z,7.00
2019-02-10T06:26:49.131Z,7.00
2019-02-10T06:29:16.857Z,7.00
2019-02-10T06:31:44.548Z,7.10
2019-02-10T06:34:14.142Z,7.20
2019-02-10T06:36:41.816Z,7.10
2019-02-10T06:39:09.535Z,7.20
2019-02-10T06:41:37.205Z,7.20
2019-02-10T06:44:04.949Z,7.20
2019-02-10T06:46:32.665Z,7.20
2019-02-10T06:49:00.374Z,7.20
2019-02-10T06:51:28.058Z,7.20
2019-02-10T06:53:55.795Z,7.20
2019-02-10T06:56:23.469Z,7.30
2019-02-10T06:58:51.262Z,7.30
2019-02-10T07:01:37.776Z,7.30
2019-02-10T07:04:11.734Z,7.30
2019-02-10T07:06:39.487Z,7.30
2019-02-10T07:09:07.266Z,7.30
2019-02-10T07:11:34.938Z,7.30
2019-02-10T07:14:04.419Z,7.40
2019-02-10T07:17:11.330Z,7.40
2019-02-10T07:20:16.125Z,7.50
2019-02-10T07:23:14.538Z,7.50
2019-02-10T07:25:47.125Z,7.50
2019-02-10T07:28:43.757Z,7.50
2019-02-10T07:31:12.029Z,7.60
2019-02-10T07:34:08.826Z,7.60
2019-02-10T07:37:06.584Z,7.60
2019-02-10T07:40:13.087Z,7.70
2019-02-10T07:43:10.724Z,7.70
2019-02-10T07:46:19.648Z,7.70
2019-02-10T07:49:22.931Z,7.80
2019-02-10T07:52:18.955Z,7.80
2019-02-10T07:55:15.143Z,7.90
2019-02-10T07:58:20.329Z,8.00
2019-02-10T08:01:27.701Z,8.10
2019-02-10T08:04:19.324Z,8.00
2019-02-10T08:07:32.552Z,8.00
2019-02-10T08:10:27.554Z,8.10
2019-02-10T08:13:51.930Z,8.10
2019-02-10T08:17:02.776Z,8.20
2019-02-10T08:19:57.314Z,8.40
2019-02-10T08:23:00.079Z,8.50
2019-02-10T08:26:18.039Z,8.60
2019-02-10T08:29:11.604Z,8.60
2019-02-10T08:32:36.023Z,8.80
2019-02-10T08:35:43.492Z,8.80
2019-02-10T08:38:54.911Z,9.00
2019-02-10T08:41:56.106Z,9.00
2019-02-10T08:44:29.140Z,9.10
2019-02-10T08:47:22.199Z,9.20
2019-02-10T08:50:15.903Z,9.20
2019-02-10T08:52:52.122Z,9.20
2019-02-10T08:55:20.003Z,9.20
2019-02-10T08:57:47.784Z,9.10
2019-02-10T09:00:15.516Z,9.30
2019-02-10T09:02:43.263Z,9.40
2019-02-10T09:05:10.930Z,9.40
2019-02-10T09:07:38.644Z,9.30
2019-02-10T09:10:08.398Z,9.40
2019-02-10T09:12:36.169Z,9.50
2019-02-10T09:15:05.258Z,9.50
2019-02-10T09:17:32.980Z,9.50
2019-02-10T09:20:00.723Z,9.50
2019-02-10T09:22:30.267Z,9.50
2019-02-10T09:24:58.024Z,9.50
2019-02-10T09:27:25.782Z,9.60
2019-02-10T09:29:53.524Z,9.60
2019-02-10T09:32:21.309Z,9.60
2019-02-10T09:34:49.124Z,9.60
2019-02-10T09:37:16.827Z,9.60
2019-02-10T09:39:45.532Z,9.60
2019-02-10T09:42:13.254Z,9.50
2019-02-10T09:44:40.912Z,9.50
2019-02-10T09:47:12.475Z,9.50
2019-02-10T09:49:40.281Z,9.40
2019-02-10T09:52:07.987Z,9.40
2019-02-10T09:54:35.747Z,9.40
2019-02-10T09:57:03.463Z,9.40
2019-02-10T09:59:31.168Z,9.30
2019-02-10T10:01:59.432Z,9.30
2019-02-10T10:04:28.739Z,9.20
2019-02-10T10:06:56.421Z,9.20
2019-02-10T10:09:24.146Z,9.20
2019-02-10T10:11:51.876Z,9.10
2019-02-10T10:14:19.830Z,9.20
2019-02-10T10:16:47.598Z,9.10
2019-02-10T10:19:16.728Z,9.10
2019-02-10T10:21:44.482Z,9.10
2019-02-10T10:24:12.223Z,9.10
2019-02-10T10:26:39.971Z,9.10
2019-02-10T10:29:08.151Z,9.10
2019-02-10T10:31:35.995Z,9.10
2019-02-10T10:34:03.762Z,9.10
2019-02-10T10:36:31.494Z,9.10
2019-02-10T10:38:59.325Z,9.10
2019-02-10T10:41:27.023Z,9.10
2019-02-10T10:43:54.847Z,9.10
2019-02-10T10:46:22.619Z,9.10
2019-02-10T10:48:50.378Z,9.10
2019-02-10T10:51:18.071Z,9.10
2019-02-10T10:53:45.845Z,9.00
2019-02-10T10:56:13.552Z,9.10
2019-02-10T10:58:41.352Z,9.00
2019-02-10T11:01:09.160Z,9.10
2019-02-10T11:03:36.914Z,9.00
2019-02-10T11:06:04.586Z,9.20
2019-02-10T11:08:32.307Z,9.20
2019-02-10T11:11:00.066Z,9.20
2019-02-10T11:13:27.808Z,9.20
2019-02-10T11:15:57.180Z,9.20
2019-02-10T11:18:25.126Z,9.20
2019-02-10T11:20:52.802Z,9.20
2019-02-10T11:23:20.573Z,9.20
2019-02-10T11:25:48.286Z,9.20
2019-02-10T11:28:16.071Z,9.20
2019-02-10T11:30:43.804Z,9.20
2019-02-10T11:33:11.612Z,9.20
2019-02-10T11:35:39.395Z,9.30
2019-02-10T11:38:07.241Z,9.30
2019-02-10T11:40:34.955Z,9.30
2019-02-10T11:43:02.768Z,9.20
2019-02-10T11:45:30.450Z,9.30
2019-02-10T11:47:58.189Z,9.30
2019-02-10T11:50:25.885Z,9.20
2019-02-10T11:52:53.637Z,9.20
2019-02-10T11:55:23.105Z,9.20
2019-02-10T11:57:50.796Z,9.10
2019-02-10T12:00:18.521Z,9.10
2019-02-10T12:02:46.237Z,9.10
2019-02-10T12:05:13.914Z,9.10
2019-02-10T12:07:41.603Z,9.00
2019-02-10T12:10:09.391Z,9.00
2019-02-10T12:12:37.112Z,9.00
2019-02-10T12:15:05.556Z,8.80
2019-02-10T12:17:33.261Z,8.80
2019-02-10T12:20:01.063Z,8.70
2019-02-10T12:22:28.809Z,8.70
2019-02-10T12:24:56.655Z,8.70
2019-02-10T12:27:24.391Z,8.70
2019-02-10T12:29:52.160Z,8.70
2019-02-10T12:32:19.916Z,8.50
2019-02-10T12:34:47.657Z,8.50
2019-02-10T12:37:16.506Z,8.40
2019-02-10T12:39:44.138Z,8.40
2019-02-10T12:42:11.826Z,8.30
2019-02-10T12:44:39.572Z,8.30
2019-02-10T12:47:07.288Z,8.30
2019-02-10T12:49:35.027Z,8.20
2019-02-10T12:52:02.778Z,8.20
2019-02-10T12:54:30.572Z,8.20
2019-02-10T12:56:58.333Z,8.20
2019-02-10T12:59:26.039Z,8.10
2019-02-10T13:01:53.778Z,8.20
2019-02-10T13:04:21.512Z,8.20
2019-02-10T13:06:49.285Z,8.20
2019-02-10T13:09:16.990Z,8.20
2019-02-10T13:11:44.709Z,8.20
2019-02-10T13:14:12.433Z,9.70
2019-02-10T13:16:40.209Z,8.30
2019-02-10T13:19:07.939Z,8.20
2019-02-10T13:21:35.618Z,8.30
2019-02-10T13:24:05.084Z,8.20
2019-02-10T13:26:32.944Z,8.30
2019-02-10T13:29:01.523Z,8.30
2019-02-10T13:31:29.193Z,8.40
2019-02-10T13:33:57.222Z,8.40
2019-02-10T13:36:25.017Z,8.40
2019-02-10T13:38:52.690Z,8.40
2019-02-10T13:41:36.107Z,8.40
2019-02-10T13:44:04.969Z,8.30
2019-02-10T13:46:32.741Z,8.30
2019-02-10T13:49:00.470Z,8.30
2019-02-10T13:51:28.180Z,8.30
2019-02-10T13:53:55.914Z,8.30
2019-02-10T13:56:23.709Z,8.30
2019-02-10T13:58:51.555Z,8.40
2019-02-10T14:01:19.215Z,8.30
2019-02-10T14:03:46.915Z,8.30
2019-02-10T14:06:14.634Z,8.30
2019-02-10T14:08:42.391Z,8.30
2019-02-10T14:13:37.887Z,8.30
2019-02-10T14:16:05.674Z,8.40
2019-02-10T14:18:33.401Z,8.40
2019-02-10T14:21:02.521Z,8.30
2019-02-10T14:23:41.507Z,8.40
2019-02-10T14:26:09.298Z,8.30
2019-02-10T14:28:37.048Z,8.30
2019-02-10T14:31:04.847Z,8.30
2019-02-10T14:33:38.759Z,8.20
2019-02-10T14:36:02.228Z,8.20
2019-02-10T14:38:36.313Z,8.20
2019-02-10T14:40:59.667Z,8.20
2019-02-10T14:43:27.346Z,8.20
2019-02-10T14:45:55.132Z,8.20
2019-02-10T14:48:22.896Z,8.30
2019-02-10T14:50:50.626Z,8.30
2019-02-10T14:53:18.312Z,8.20
2019-02-10T14:55:46.168Z,8.10
2019-02-10T14:58:14.057Z,8.10
2019-02-10T15:00:41.812Z,8.00
2019-02-10T15:03:09.568Z,8.00
2019-02-10T15:05:40.031Z,7.80
2019-02-10T15:08:07.766Z,7.70
2019-02-10T15:10:41.722Z,7.70
2019-02-10T15:13:05.684Z,7.70
2019-02-10T15:15:34.156Z,7.70
2019-02-10T15:18:01.845Z,7.60
2019-02-10T15:20:29.961Z,7.60
2019-02-10T15:22:57.667Z,7.60
2019-02-10T15:25:25.565Z,7.50
2019-02-10T15:27:53.775Z,7.50
2019-02-10T15:32:49.303Z,7.50
2019-02-10T15:35:17.095Z,7.50
2019-02-10T15:37:44.899Z,7.50
2019-02-10T15:40:12.638Z,7.50
2019-02-10T15:42:40.358Z,7.50
2019-02-10T15:45:08.616Z,7.50
2019-02-10T15:47:36.355Z,7.50
2019-02-10T15:50:06.307Z,7.50
2019-02-10T15:52:34.218Z,7.60
2019-02-10T15:55:08.258Z,7.60
2019-02-10T15:57:36.120Z,7.60
2019-02-10T16:00:05.713Z,7.60
2019-02-10T16:02:33.744Z,7.60
2019-02-10T16:05:01.404Z,7.50
2019-02-10T16:07:29.234Z,7.50
2019-02-10T16:09:56.979Z,7.50
2019-02-10T16:12:24.747Z,7.40
2019-02-10T16:14:52.555Z,7.30
2019-02-10T16:17:20.351Z,7.30
2019-02-10T16:19:48.153Z,7.30
2019-02-10T16:22:16.047Z,7.20
2019-02-10T16:24:43.798Z,7.20
2019-02-10T16:27:11.592Z,7.10
2019-02-10T16:29:39.285Z,7.00
2019-02-10T16:32:07.838Z,7.00
2019-02-10T16:34:35.659Z,6.90
2019-02-10T16:37:04.969Z,6.90
2019-02-10T16:39:32.818Z,6.80
2019-02-10T16:44:28.278Z,6.80
2019-02-10T16:46:56.090Z,6.80
2019-02-10T16:49:23.823Z,6.70
2019-02-10T16:51:51.608Z,6.70
2019-02-10T16:54:19.345Z,6.70
2019-02-10T16:56:47.132Z,6.60
2019-02-10T16:59:14.944Z,6.60
2019-02-10T17:01:42.690Z,6.60
2019-02-10T17:04:10.438Z,6.60
2019-02-10T17:06:38.223Z,6.60
2019-02-10T17:09:06.380Z,6.60
2019-02-10T17:11:34.224Z,6.60
2019-02-10T17:14:01.946Z,6.50
2019-02-10T17:16:29.712Z,6.50
2019-02-10T17:21:25.218Z,6.50
2019-02-10T17:23:52.960Z,6.30
2019-02-10T17:26:20.658Z,6.30
2019-02-10T17:28:48.429Z,6.30
2019-02-10T17:31:16.226Z,6.30
2019-02-10T17:33:43.963Z,6.30
2019-02-10T17:38:39.396Z,6.20
2019-02-10T17:43:39.416Z,6.20
2019-02-10T17:46:07.148Z,6.20
2019-02-10T17:48:35.327Z,6.20
2019-02-10T17:51:03.056Z,6.20
2019-02-10T17:53:31.466Z,6.10
2019-02-10T17:55:59.851Z,6.10
2019-02-10T17:58:27.563Z,6.10
2019-02-10T18:00:55.365Z,6.10
2019-02-10T18:03:23.147Z,6.10
2019-02-10T18:05:50.876Z,6.10
2019-02-10T18:10:46.253Z,6.00
2019-02-10T18:13:14.010Z,5.90
2019-02-10T18:15:56.291Z,5.90
2019-02-10T18:18:49.344Z,5.90
2019-02-10T18:21:48.684Z,5.80
2019-02-10T18:24:34.560Z,5.80
2019-02-10T18:27:28.141Z,5.90
2019-02-10T18:30:24.613Z,5.80
2019-02-10T18:36:01.806Z,5.80
2019-02-10T18:38:49.401Z,5.70
2019-02-10T18:44:28.646Z,5.70
2019-02-10T18:47:15.924Z,5.60
2019-02-10T18:50:15.502Z,5.60
2019-02-10T18:53:05.445Z,5.50
2019-02-10T18:58:43.017Z,5.40
2019-02-10T19:01:30.204Z,5.30
2019-02-10T19:04:11.031Z,5.30
2019-02-10T19:06:58.185Z,5.20
2019-02-10T19:09:54.427Z,5.20
2019-02-10T19:12:40.177Z,5.20
2019-02-10T19:15:28.642Z,5.10
2019-02-10T19:18:06.595Z,5.10
2019-02-10T19:20:57.025Z,5.00
2019-02-10T19:23:43.132Z,5.00
2019-02-10T19:29:16.900Z,4.90
2019-02-10T19:32:04.060Z,4.90
2019-02-10T19:34:51.299Z,4.80
2019-02-10T19:37:50.490Z,4.70
2019-02-10T19:40:46.801Z,4.70
2019-02-10T19:43:42.887Z,4.70
2019-02-10T19:46:29.030Z,4.70
2019-02-10T19:49:16.241Z,4.70
2019-02-10T19:51:51.929Z,4.70
2019-02-10T19:54:33.582Z,4.60
2019-02-10T19:57:20.831Z,4.60
2019-02-10T20:00:03.872Z,4.50
2019-02-10T20:02:49.752Z,4.50
2019-02-10T20:08:18.828Z,4.40
2019-02-10T20:11:12.581Z,4.30
2019-02-10T20:14:11.636Z,4.30
2019-02-10T20:16:49.427Z,4.30
2019-02-10T20:19:35.467Z,4.30
2019-02-10T20:22:25.396Z,4.30
2019-02-10T20:25:12.594Z,4.80
2019-02-10T20:31:06.081Z,4.20
2019-02-10T20:33:51.217Z,4.10
2019-02-10T20:36:38.407Z,4.10
2019-02-10T20:39:25.618Z,4.10
2019-02-10T20:42:11.904Z,4.10
2019-02-10T20:44:54.426Z,4.10
2019-02-10T20:47:40.461Z,4.10
2019-02-10T20:50:30.818Z,4.10
2019-02-10T20:55:52.327Z,4.10
2019-02-10T20:58:38.198Z,4.00
2019-02-10T21:01:14.061Z,4.00
2019-02-10T21:06:29.070Z,4.00
2019-02-10T21:09:16.990Z,3.80
2019-02-10T21:12:20.903Z,3.80
2019-02-10T21:15:08.212Z,3.70
2019-02-10T21:17:52.498Z,3.70
2019-02-10T21:20:39.706Z,3.60
2019-02-10T21:23:12.066Z,3.50
2019-02-10T21:26:02.041Z,3.50
2019-02-10T21:28:49.519Z,3.40
2019-02-10T21:34:35.655Z,3.20
2019-02-10T21:37:10.219Z,3.20
2019-02-10T21:39:57.446Z,3.10
2019-02-10T21:42:43.724Z,3.00
2019-02-10T21:45:36.838Z,2.90
2019-02-10T21:48:08.727Z,3.00
2019-02-10T21:50:36.465Z,2.90
2019-02-10T21:53:04.221Z,2.80
2019-02-10T21:55:32.078Z,2.80
2019-02-10T21:57:59.918Z,2.80
2019-02-10T22:00:27.639Z,2.80
2019-02-10T22:02:55.449Z,2.80
2019-02-10T22:05:23.215Z,2.80
2019-02-10T22:07:50.912Z,2.70
2019-02-10T22:10:20.483Z,2.80
2019-02-10T22:12:48.208Z,2.90
2019-02-10T22:15:15.923Z,2.90
2019-02-10T22:17:43.681Z,2.90
2019-02-10T22:20:11.414Z,2.90
2019-02-10T22:22:39.174Z,2.90
2019-02-10T22:25:08.394Z,2.90
2019-02-10T22:27:36.152Z,2.90
2019-02-10T22:32:32.096Z,2.80
2019-02-10T22:34:59.785Z,2.80
2019-02-10T22:37:27.494Z,2.90
2019-02-10T22:39:55.285Z,2.90
2019-02-10T22:42:23.073Z,2.90
2019-02-10T22:44:50.811Z,2.90
2019-02-10T22:47:18.491Z,2.90
2019-02-10T22:49:46.142Z,3.00
2019-02-10T22:52:13.929Z,3.00
2019-02-10T22:54:41.670Z,3.10
2019-02-10T22:57:09.397Z,3.20
2019-02-10T22:59:37.121Z,3.20
2019-02-10T23:02:05.385Z,3.20
2019-02-10T23:04:33.181Z,3.20
2019-02-10T23:09:28.573Z,3.40
2019-02-10T23:11:56.285Z,3.40
2019-02-10T23:14:23.952Z,3.40
2019-02-10T23:16:51.702Z,3.50
2019-02-10T23:19:19.980Z,3.50
2019-02-10T23:21:47.771Z,3.50
2019-02-10T23:24:15.501Z,3.60
2019-02-10T23:26:43.260Z,3.60
2019-02-10T23:29:10.992Z,3.50
2019-02-10T23:31:38.748Z,3.60
2019-02-10T23:34:08.332Z,3.60
2019-02-10T23:36:36.046Z,3.60
2019-02-10T23:39:05.206Z,3.60
2019-02-10T23:41:32.881Z,3.70
2019-02-10T23:44:00.734Z,3.70
2019-02-10T23:46:28.490Z,3.70
2019-02-10T23:48:56.183Z,3.70
2019-02-10T23:51:23.969Z,3.70
2019-02-10T23:53:51.695Z,3.70
2019-02-10T23:56:19.482Z,3.70
2019-02-10T23:58:47.172Z,3.80
